createdAt,value
2022-12-31T00:00:02.586Z,12.26
2022-12-31T00:07:02.216Z,12.32
2022-12-31T00:14:02.227Z,12.32
2022-12-31T00:21:01.882Z,12.26
2022-12-31T00:28:02.198Z,12.13
2022-12-31T00:35:02.426Z,12.13
2022-12-31T00:42:01.707Z,12.16
2022-12-31T00:49:01.451Z,12.16
2022-12-31T00:56:01.362Z,12
2022-12-31T01:00:01.939Z,12
2022-12-31T01:07:01.401Z,12
2022-12-31T01:14:02.307Z,12
2022-12-31T01:21:01.417Z,11.95
2022-12-31T01:28:02.060Z,11.95
2022-12-31T01:35:02.385Z,11.95
2022-12-31T01:42:01.731Z,11.95
2022-12-31T02:00:01.552Z,12.09
2022-12-31T02:07:01.979Z,12.09
2022-12-31T02:14:01.771Z,12.27
2022-12-31T02:21:02.152Z,12.27
2022-12-31T02:28:01.601Z,12.27
2022-12-31T02:35:01.741Z,12.27
2022-12-31T02:42:01.698Z,13.01
2022-12-31T02:49:01.431Z,13.01
2022-12-31T02:56:01.724Z,13.01
2022-12-31T03:00:02.339Z,13.01
2022-12-31T03:07:01.497Z,13.4
2022-12-31T03:14:02.102Z,13.4
2022-12-31T03:21:02.153Z,13.47
2022-12-31T03:28:01.895Z,13.47
2022-12-31T03:35:01.955Z,13.72
2022-12-31T03:42:01.822Z,13.84
2022-12-31T03:49:01.394Z,13.84
2022-12-31T03:56:01.589Z,13.89
2022-12-31T04:00:02.139Z,13.89
2022-12-31T04:07:01.978Z,13.89
2022-12-31T04:14:01.944Z,13.97
2022-12-31T04:21:01.485Z,14.03
2022-12-31T04:28:01.345Z,14.03
2022-12-31T04:35:01.822Z,14.04
2022-12-31T04:42:02.117Z,14.04
2022-12-31T04:49:02.105Z,14.04
2022-12-31T04:56:01.638Z,14.04
2022-12-31T05:00:02.316Z,14.15
2022-12-31T05:07:01.424Z,14.15
2022-12-31T05:14:01.318Z,14.26
2022-12-31T05:21:01.651Z,14.26
2022-12-31T05:28:01.576Z,14.28
2022-12-31T05:35:01.657Z,14.28
2022-12-31T05:42:01.886Z,14.28
2022-12-31T05:49:01.565Z,14.28
2022-12-31T05:56:01.502Z,14.43
2022-12-31T06:00:02.136Z,14.43
2022-12-31T06:07:02.321Z,14.52
2022-12-31T06:14:02.115Z,14.52
2022-12-31T06:21:02.323Z,14.56
2022-12-31T06:28:01.633Z,14.56
2022-12-31T06:35:01.915Z,14.62
2022-12-31T06:42:01.538Z,14.62
2022-12-31T06:49:01.923Z,14.67
2022-12-31T06:56:01.713Z,14.6
2022-12-31T07:00:02.320Z,14.6
2022-12-31T07:07:01.692Z,14.6
2022-12-31T07:14:01.874Z,14.65
2022-12-31T07:21:01.481Z,14.76
2022-12-31T07:28:02.072Z,14.76
2022-12-31T07:35:01.800Z,14.76
2022-12-31T07:42:01.347Z,14.76
2022-12-31T07:49:01.409Z,14.81
2022-12-31T07:56:01.434Z,14.81
2022-12-31T08:00:02.025Z,14.9
2022-12-31T08:07:01.650Z,14.9
2022-12-31T08:14:01.609Z,14.9
2022-12-31T08:21:01.685Z,14.9
2022-12-31T08:28:01.765Z,14.97
2022-12-31T08:35:02.485Z,14.97
2022-12-31T08:42:01.556Z,15.09
2022-12-31T08:49:02.158Z,15.09
2022-12-31T08:56:01.919Z,15.09
2022-12-31T09:00:02.527Z,15.09
2022-12-31T09:07:01.472Z,15.18
2022-12-31T09:14:02.000Z,15.18
2022-12-31T09:21:01.764Z,15.08
2022-12-31T09:28:01.699Z,15.08
2022-12-31T09:35:02.006Z,15.32
2022-12-31T09:42:01.511Z,15.39
2022-12-31T09:49:02.188Z,15.39
2022-12-31T09:56:01.400Z,15.42
2022-12-31T10:00:02.019Z,15.42
2022-12-31T10:07:02.145Z,15.42
2022-12-31T10:14:02.229Z,15.51
2022-12-31T10:21:02.053Z,15.59
2022-12-31T10:28:01.572Z,15.59
2022-12-31T10:35:01.678Z,15.67
2022-12-31T10:42:02.064Z,15.67
2022-12-31T10:49:01.672Z,15.69
2022-12-31T10:56:01.915Z,15.69
2022-12-31T11:00:02.524Z,15.74
2022-12-31T11:07:01.994Z,15.74
2022-12-31T11:14:01.812Z,15.8
2022-12-31T11:21:01.966Z,15.8
2022-12-31T11:28:01.321Z,15.87
2022-12-31T11:35:02.048Z,15.87
2022-12-31T11:42:01.709Z,16
2022-12-31T11:49:01.387Z,16
2022-12-31T11:56:01.320Z,16.02
2022-12-31T12:00:01.987Z,16.02
2022-12-31T12:07:02.120Z,15.99
2022-12-31T12:14:01.318Z,15.99
2022-12-31T12:21:02.091Z,15.95
2022-12-31T12:28:01.538Z,15.95
2022-12-31T12:35:02.241Z,15.94
2022-12-31T12:42:02.288Z,15.93
2022-12-31T12:49:02.256Z,15.93
2022-12-31T12:56:01.548Z,15.9
2022-12-31T13:00:02.203Z,15.9
2022-12-31T13:07:01.667Z,15.9
2022-12-31T13:14:02.261Z,15.94
2022-12-31T13:21:01.561Z,15.93
2022-12-31T13:28:02.156Z,15.93
2022-12-31T13:35:02.336Z,15.93
2022-12-31T13:42:01.447Z,15.93
2022-12-31T13:49:01.751Z,15.96
2022-12-31T13:56:01.597Z,15.96
2022-12-31T14:00:02.139Z,15.95
2022-12-31T14:07:01.646Z,15.95
2022-12-31T14:14:01.920Z,15.86
2022-12-31T14:21:02.111Z,15.86
2022-12-31T14:28:01.480Z,15.67
2022-12-31T14:35:02.100Z,15.67
2022-12-31T14:42:01.860Z,15.53
2022-12-31T14:49:01.344Z,15.53
2022-12-31T14:56:01.584Z,15.38
2022-12-31T15:00:02.301Z,15.38
2022-12-31T15:07:02.106Z,15.34
2022-12-31T15:14:01.605Z,15.34
2022-12-31T15:21:01.753Z,15.16
2022-12-31T15:28:02.030Z,15.16
2022-12-31T15:35:02.578Z,15.01
2022-12-31T15:49:05.826Z,14.9
2022-12-31T15:56:02.140Z,14.79
2022-12-31T16:00:01.696Z,14.79
2022-12-31T16:07:01.312Z,14.79
2022-12-31T16:14:01.817Z,14.71
2022-12-31T16:21:02.312Z,14.61
2022-12-31T16:28:01.781Z,14.61
2022-12-31T16:35:02.329Z,14.51
2022-12-31T16:42:01.809Z,14.51
2022-12-31T16:49:02.129Z,14.49
2022-12-31T16:56:02.172Z,14.49
2022-12-31T17:00:01.754Z,14.39
2022-12-31T17:07:02.158Z,14.39
2022-12-31T17:14:02.249Z,14.36
2022-12-31T17:21:01.691Z,14.36
2022-12-31T17:28:01.482Z,14.21
2022-12-31T17:35:02.034Z,14.21
2022-12-31T17:42:01.843Z,14.06
2022-12-31T17:49:02.134Z,14.06
2022-12-31T17:56:02.099Z,14
2022-12-31T18:00:01.657Z,14
2022-12-31T18:07:01.700Z,13.92
2022-12-31T18:14:01.793Z,13.92
2022-12-31T18:21:02.034Z,13.95
2022-12-31T18:28:01.451Z,13.95
2022-12-31T18:35:02.310Z,13.91
2022-12-31T18:42:01.369Z,13.91
2022-12-31T18:49:01.649Z,13.78
2022-12-31T18:56:01.624Z,13.75
2022-12-31T19:00:02.174Z,13.75
2022-12-31T19:07:02.260Z,13.75
2022-12-31T19:14:01.708Z,13.61
2022-12-31T19:21:01.769Z,13.69
2022-12-31T19:28:01.444Z,13.69
2022-12-31T19:35:02.419Z,13.68
2022-12-31T19:42:01.322Z,13.68
2022-12-31T19:49:02.010Z,13.63
2022-12-31T19:56:01.616Z,13.63
2022-12-31T20:00:02.290Z,13.6
2022-12-31T20:07:02.292Z,13.6
2022-12-31T20:14:01.662Z,13.58
2022-12-31T20:21:01.967Z,13.58
2022-12-31T20:28:01.954Z,13.03
2022-12-31T20:35:02.046Z,13.03
2022-12-31T20:42:01.577Z,13.57
2022-12-31T20:49:01.428Z,13.57
2022-12-31T20:56:01.604Z,13.69
2022-12-31T21:00:02.277Z,13.69
2022-12-31T21:07:01.453Z,13.82
2022-12-31T21:14:01.742Z,13.82
2022-12-31T21:21:01.862Z,14.1
2022-12-31T21:28:02.230Z,14.1
2022-12-31T21:35:40.243Z,14.19
2022-12-31T21:42:02.111Z,14.19
2022-12-31T21:49:01.675Z,14.21
2022-12-31T21:56:02.299Z,14.24
2022-12-31T22:00:39.760Z,14.24
2022-12-31T22:07:01.744Z,14.24
2022-12-31T22:14:02.031Z,13.71
2022-12-31T22:21:01.628Z,13.71
2022-12-31T22:28:36.849Z,14.35
2022-12-31T22:35:02.451Z,14.32
2022-12-31T22:42:01.569Z,14.32
2022-12-31T22:49:01.482Z,14.31
2022-12-31T22:56:01.716Z,14.31
2022-12-31T23:00:02.392Z,14.26
2022-12-31T23:07:02.241Z,14.26
2022-12-31T23:14:02.258Z,14.24
2022-12-31T23:21:01.604Z,14.24
2022-12-31T23:28:01.866Z,14.3
2022-12-31T23:35:09.434Z,14.3
2022-12-31T23:42:01.974Z,14.34
2022-12-31T23:49:02.295Z,14.34
2022-12-31T23:56:06.253Z,14.4
